Time;durP1;ratioP1;P1;durP2;ratioP2;P2;SDS_P1;SDS_P2;PMS_P1;PMS_P2;Temp;Humidity;BMP_temperature;BMP_pressure;BME280_temperature;BME280_humidity;BME280_pressure;Samples;Min_cycle;Max_cycle;Signal;HPM_P1;HPM_P2
2022/09/18 00:02:05;;;;;;;8.13;1.27;;;12.00;99.90;;;;;;5034782;28;20029;-83
2022/09/18 00:04:30;;;;;;;9.05;1.27;;;12.00;99.90;;;;;;5017563;28;20496;-83
2022/09/18 00:06:56;;;;;;;8.68;0.95;;;12.00;99.90;;;;;;5034170;28;20025;-83
2022/09/18 00:09:22;;;;;;;12.27;1.67;;;12.00;99.90;;;;;;5050938;28;20021;-83
2022/09/18 00:11:49;;;;;;;8.55;1.25;;;12.00;99.90;;;;;;5033956;28;20017;-83
2022/09/18 00:14:24;;;;;;;5.90;0.82;;;12.00;99.90;;;;;;5033619;28;20021;-83
2022/09/18 00:16:50;;;;;;;9.02;1.10;;;12.00;99.90;;;;;;5017267;28;20036;-83
2022/09/18 00:19:16;;;;;;;7.82;1.13;;;12.00;99.90;;;;;;5034010;28;20126;-83
2022/09/18 00:21:48;;;;;;;8.35;1.10;;;12.10;99.90;;;;;;5033769;28;20024;-83
2022/09/18 00:24:16;;;;;;;10.05;1.27;;;12.10;99.90;;;;;;5050472;28;20029;-83
2022/09/18 00:26:42;;;;;;;10.73;1.23;;;12.10;99.90;;;;;;5001231;28;20048;-85
2022/09/18 00:29:10;;;;;;;3.22;0.70;;;12.10;99.90;;;;;;5033770;28;20017;-84
2022/09/18 00:31:36;;;;;;;5.88;0.95;;;12.10;99.90;;;;;;5034724;28;20025;-83
2022/09/18 00:34:06;;;;;;;8.48;0.85;;;12.10;99.90;;;;;;5033309;28;20052;-84
2022/09/18 00:36:33;;;;;;;7.13;1.00;;;12.10;99.90;;;;;;5033478;28;20028;-84
2022/09/18 00:38:58;;;;;;;10.25;1.58;;;12.20;99.90;;;;;;5017042;28;20021;-84
2022/09/18 00:41:27;;;;;;;10.38;1.10;;;12.10;99.90;;;;;;5017081;28;20025;-84
2022/09/18 00:44:14;;;;;;;10.23;1.10;;;12.20;99.90;;;;;;5033558;28;20048;-84
2022/09/18 00:46:43;;;;;;;9.75;1.00;;;12.10;99.90;;;;;;5032859;28;20032;-84
2022/09/18 00:49:14;;;;;;;11.15;1.35;;;12.20;99.90;;;;;;5034527;28;20412;-84
2022/09/18 00:51:42;;;;;;;10.40;1.67;;;12.20;99.90;;;;;;5049850;28;20484;-83
2022/09/18 00:54:33;;;;;;;9.07;1.02;;;12.00;99.90;;;;;;5049925;28;20041;-84
2022/09/18 00:57:03;;;;;;;5.93;0.90;;;12.20;99.90;;;;;;5032587;28;20018;-84
2022/09/18 00:59:31;;;;;;;9.10;1.20;;;12.20;99.90;;;;;;5034307;28;20017;-83
2022/09/18 01:01:58;;;;;;;8.55;0.80;;;12.20;99.90;;;;;;5032840;28;20523;-83
2022/09/18 01:04:26;;;;;;;12.55;1.40;;;12.20;99.90;;;;;;5032926;28;20040;-83
2022/09/18 01:06:54;;;;;;;9.35;1.05;;;12.20;99.90;;;;;;5032843;28;20025;-83
2022/09/18 01:09:44;;;;;;;6.85;0.82;;;12.20;99.90;;;;;;5032749;28;20575;-84
2022/09/18 01:12:17;;;;;;;5.15;1.23;;;12.20;99.90;;;;;;5033116;28;20025;-84
2022/09/18 01:15:01;;;;;;;8.48;1.02;;;12.20;99.90;;;;;;5056509;28;20013;-84
2022/09/18 01:17:32;;;;;;;6.25;0.85;;;12.20;99.90;;;;;;5052941;28;20107;-84
2022/09/18 01:20:37;;;;;;;10.35;1.60;;;12.20;99.90;;;;;;5067890;28;20021;-83
2022/09/18 01:23:24;;;;;;;8.93;0.82;;;12.20;99.90;;;;;;5045351;28;20044;-84
2022/09/18 01:26:03;;;;;;;9.77;0.88;;;12.20;99.90;;;;;;5069353;28;20033;-83
2022/09/18 01:28:37;;;;;;;7.05;1.00;;;12.20;99.90;;;;;;5052581;28;20013;-84
2022/09/18 01:31:11;;;;;;;8.13;1.00;;;12.20;99.90;;;;;;5052515;28;20025;-84
2022/09/18 01:34:08;;;;;;;10.95;0.98;;;12.20;99.90;;;;;;5052193;28;20440;-84
2022/09/18 01:36:37;;;;;;;5.10;1.02;;;12.20;99.90;;;;;;5052671;28;20464;-85
2022/09/18 01:39:13;;;;;;;6.03;0.93;;;12.20;99.90;;;;;;5053747;28;20373;-85
2022/09/18 01:41:41;;;;;;;7.78;0.70;;;12.10;99.90;;;;;;5052079;28;20017;-84
2022/09/18 01:44:12;;;;;;;10.25;1.02;;;12.10;99.90;;;;;;5052302;28;20496;-84
2022/09/18 01:46:40;;;;;;;10.38;1.13;;;12.10;99.90;;;;;;5052322;28;20342;-84
2022/09/18 01:49:13;;;;;;;8.82;1.20;;;12.10;99.90;;;;;;5053423;28;20052;-85
2022/09/18 01:51:51;;;;;;;8.37;1.00;;;12.10;99.90;;;;;;5052524;28;20095;-85
2022/09/18 01:54:24;;;;;;;9.52;1.85;;;12.10;99.90;;;;;;5051853;28;20053;-85
2022/09/18 01:57:16;;;;;;;9.02;1.30;;;12.10;99.90;;;;;;5051895;28;20017;-85
2022/09/18 01:59:48;;;;;;;8.15;1.50;;;12.00;99.90;;;;;;5045835;28;20029;-85
2022/09/18 02:02:32;;;;;;;8.02;1.10;;;12.10;99.90;;;;;;5052511;28;20372;-85
2022/09/18 02:05:01;;;;;;;11.82;2.00;;;12.10;99.90;;;;;;5053861;28;20044;-88
2022/09/18 02:07:40;;;;;;;9.18;1.10;;;12.20;99.90;;;;;;5052811;28;20108;-88
2022/09/18 02:10:07;;;;;;;8.40;1.17;;;12.10;99.90;;;;;;5069652;28;20442;-87
2022/09/18 02:12:37;;;;;;;8.57;1.05;;;12.20;99.90;;;;;;5037313;28;20375;-89
2022/09/18 02:15:09;;;;;;;7.50;1.05;;;12.20;99.90;;;;;;5060294;28;20029;-89
2022/09/18 02:17:42;;;;;;;11.25;1.17;;;12.20;99.90;;;;;;5058813;28;20024;-89
2022/09/18 02:20:19;;;;;;;12.23;1.40;;;12.20;99.90;;;;;;5054955;28;20103;-89
2022/09/18 02:22:47;;;;;;;9.18;1.00;;;12.20;99.90;;;;;;5053743;28;20017;-90
2022/09/18 02:25:18;;;;;;;7.68;0.90;;;12.10;99.90;;;;;;5037298;28;20037;-89
2022/09/18 02:27:48;;;;;;;9.45;0.88;;;12.20;99.90;;;;;;5069246;28;20024;-84
2022/09/18 02:30:14;;;;;;;11.10;1.27;;;12.10;99.90;;;;;;5052415;28;20114;-84
2022/09/18 02:32:40;;;;;;;9.88;1.05;;;12.10;99.90;;;;;;5068965;28;20017;-84
2022/09/18 02:35:08;;;;;;;8.80;1.15;;;12.10;99.90;;;;;;5052142;28;20025;-85
2022/09/18 02:38:02;;;;;;;5.28;0.70;;;12.00;99.90;;;;;;5052309;28;20017;-85
2022/09/18 02:40:38;;;;;;;9.68;1.50;;;12.00;99.90;;;;;;5069089;28;20017;-85
2022/09/18 02:43:34;;;;;;;13.73;2.25;;;12.00;99.90;;;;;;5051989;28;20471;-85
2022/09/18 02:46:46;;;;;;;11.15;0.80;;;12.00;99.90;;;;;;5068171;28;20436;-85
2022/09/18 02:49:50;;;;;;;8.27;1.00;;;12.00;99.90;;;;;;5048499;28;20033;-85
2022/09/18 02:52:32;;;;;;;9.05;1.15;;;12.00;99.90;;;;;;5037781;28;20025;-84
2022/09/18 02:55:08;;;;;;;12.32;1.23;;;12.00;99.90;;;;;;5053350;28;20037;-85
2022/09/18 02:58:05;;;;;;;5.07;0.90;;;12.00;99.90;;;;;;5053063;28;20079;-86
2022/09/18 03:00:31;;;;;;;9.82;1.02;;;12.00;99.90;;;;;;5051188;28;20033;-85
2022/09/18 03:02:58;;;;;;;6.38;0.90;;;12.00;99.90;;;;;;5035362;28;20132;-85
2022/09/18 03:05:24;;;;;;;6.93;0.90;;;12.00;99.90;;;;;;5068457;28;20381;-87
2022/09/18 03:07:50;;;;;;;8.18;0.93;;;12.00;99.90;;;;;;5035677;28;20083;-86
2022/09/18 03:10:16;;;;;;;7.93;0.68;;;12.00;99.90;;;;;;5037718;28;20013;-85
2022/09/18 03:12:42;;;;;;;7.97;0.75;;;12.00;99.90;;;;;;5056699;28;20477;-84
2022/09/18 03:15:09;;;;;;;4.60;0.60;;;12.00;99.90;;;;;;5055206;28;20025;-84
2022/09/18 03:17:35;;;;;;;10.23;1.23;;;12.00;99.90;;;;;;5056263;28;20013;-85
2022/09/18 03:20:02;;;;;;;8.73;0.88;;;12.00;99.90;;;;;;5055515;28;20037;-86
2022/09/18 03:22:28;;;;;;;4.53;0.60;;;12.10;99.90;;;;;;5054930;28;20021;-85
2022/09/18 03:24:53;;;;;;;7.30;0.85;;;12.10;99.90;;;;;;5055238;28;20037;-85
2022/09/18 03:27:19;;;;;;;6.85;1.10;;;12.10;99.90;;;;;;5021832;28;20415;-85
2022/09/18 03:29:44;;;;;;;6.32;0.80;;;12.10;99.90;;;;;;5072066;28;20488;-85
2022/09/18 03:32:10;;;;;;;7.40;0.63;;;12.10;99.90;;;;;;5055467;28;20369;-87
2022/09/18 03:34:37;;;;;;;5.40;0.68;;;12.30;99.90;;;;;;5056338;28;20052;-87
2022/09/18 03:37:02;;;;;;;5.38;0.70;;;12.00;99.90;;;;;;5056455;28;20126;-85
2022/09/18 03:39:28;;;;;;;5.45;0.60;;;12.10;99.90;;;;;;5038420;28;20457;-86
2022/09/18 03:41:54;;;;;;;9.00;1.13;;;12.00;99.90;;;;;;5054816;28;20021;-85
2022/09/18 03:44:19;;;;;;;6.80;0.93;;;12.00;99.90;;;;;;5054606;28;20075;-86
2022/09/18 03:46:45;;;;;;;7.93;0.80;;;12.10;99.90;;;;;;5054457;28;20472;-85
2022/09/18 03:49:11;;;;;;;8.27;0.57;;;12.10;99.90;;;;;;5038348;28;20112;-85
2022/09/18 03:51:36;;;;;;;6.53;1.02;;;12.10;99.90;;;;;;5038540;28;20029;-86
2022/09/18 03:54:02;;;;;;;8.98;0.82;;;12.10;99.90;;;;;;5021783;28;20057;-88
2022/09/18 03:56:30;;;;;;;7.60;0.80;;;12.10;99.90;;;;;;5038149;28;20148;-88
2022/09/18 03:58:56;;;;;;;6.05;0.82;;;12.10;99.90;;;;;;5055274;28;20028;-88
2022/09/18 04:01:22;;;;;;;7.10;0.60;;;12.10;99.90;;;;;;5033307;28;20090;-88
2022/09/18 04:03:48;;;;;;;9.07;0.68;;;12.10;99.90;;;;;;5015759;28;20028;-86
2022/09/18 04:06:13;;;;;;;4.10;0.77;;;12.00;99.90;;;;;;5049851;28;20025;-84
2022/09/18 04:08:39;;;;;;;3.70;0.52;;;12.00;99.90;;;;;;5034406;28;20056;-86
2022/09/18 04:11:05;;;;;;;7.60;0.68;;;12.00;99.90;;;;;;5033898;28;20162;-85
2022/09/18 04:13:32;;;;;;;11.27;1.17;;;12.10;99.90;;;;;;5017213;28;20108;-83
2022/09/18 04:15:57;;;;;;;10.80;0.70;;;12.00;99.90;;;;;;5017155;28;20532;-85
2022/09/18 04:18:23;;;;;;;7.60;0.90;;;12.00;99.90;;;;;;5034118;28;20053;-84
2022/09/18 04:20:49;;;;;;;5.85;0.77;;;12.00;99.90;;;;;;5000569;28;20044;-83
2022/09/18 04:23:15;;;;;;;5.70;0.70;;;12.00;99.90;;;;;;5001239;28;20502;-83
2022/09/18 04:25:41;;;;;;;7.30;0.95;;;11.90;99.90;;;;;;5033933;28;20037;-84
2022/09/18 04:28:07;;;;;;;5.05;0.75;;;11.90;99.90;;;;;;5001014;28;20685;-83
2022/09/18 04:30:33;;;;;;;5.70;0.73;;;11.90;99.90;;;;;;5033728;28;20469;-83
2022/09/18 04:32:59;;;;;;;7.60;0.70;;;11.90;99.90;;;;;;5001311;28;20029;-86
2022/09/18 04:35:24;;;;;;;6.00;0.73;;;11.90;99.90;;;;;;5001158;28;20025;-84
2022/09/18 04:37:50;;;;;;;9.05;0.98;;;11.90;99.90;;;;;;5017621;28;20026;-84
2022/09/18 04:40:16;;;;;;;6.50;0.90;;;11.90;99.90;;;;;;5033845;28;20045;-83
2022/09/18 04:42:41;;;;;;;6.28;0.77;;;11.90;99.90;;;;;;5017773;28;20531;-85
2022/09/18 04:45:07;;;;;;;7.32;0.60;;;11.90;99.90;;;;;;5017142;28;20111;-84
2022/09/18 04:47:33;;;;;;;7.00;0.80;;;11.90;99.90;;;;;;5033288;28;20025;-84
2022/09/18 04:49:59;;;;;;;7.97;1.15;;;11.90;99.90;;;;;;5033811;28;20021;-84
2022/09/18 04:52:25;;;;;;;3.80;0.70;;;11.90;99.90;;;;;;5050105;28;20032;-86
2022/09/18 04:54:50;;;;;;;7.13;1.15;;;11.90;99.90;;;;;;5033622;28;20472;-83
2022/09/18 04:57:16;;;;;;;4.03;0.60;;;11.90;99.90;;;;;;5032471;28;20036;-84
2022/09/18 04:59:41;;;;;;;4.85;0.50;;;11.80;99.90;;;;;;5033241;28;20032;-84
2022/09/18 05:02:07;;;;;;;5.70;1.05;;;11.80;99.90;;;;;;5033551;28;20032;-85
2022/09/18 05:04:33;;;;;;;11.73;1.33;;;11.80;99.90;;;;;;5033358;28;20053;-85
2022/09/18 05:06:58;;;;;;;16.20;1.48;;;11.80;99.90;;;;;;5033237;28;20021;-84
2022/09/18 05:09:24;;;;;;;6.68;0.73;;;11.80;99.90;;;;;;5038996;28;20027;-83
2022/09/18 05:11:50;;;;;;;6.25;0.68;;;11.80;99.90;;;;;;5017509;28;20069;-83
2022/09/18 05:14:15;;;;;;;8.30;0.65;;;11.80;99.90;;;;;;5049873;28;20032;-84
2022/09/18 05:16:41;;;;;;;8.65;1.65;;;11.70;99.90;;;;;;5033315;28;20446;-85
2022/09/18 05:19:07;;;;;;;5.85;0.65;;;11.70;99.90;;;;;;5067493;28;20063;-84
2022/09/18 05:21:32;;;;;;;6.20;0.93;;;11.70;99.90;;;;;;5014424;28;20033;-83
2022/09/18 05:23:58;;;;;;;5.28;0.45;;;11.80;99.90;;;;;;5035861;28;20047;-83
2022/09/18 05:26:25;;;;;;;9.52;0.70;;;11.70;99.90;;;;;;5051299;28;20339;-84
2022/09/18 05:28:51;;;;;;;8.75;1.00;;;11.70;99.90;;;;;;5052731;28;20053;-83
2022/09/18 05:31:16;;;;;;;14.93;0.80;;;11.70;99.90;;;;;;5053469;28;20453;-86
2022/09/18 05:33:42;;;;;;;6.95;0.60;;;11.80;99.90;;;;;;5053321;28;20025;-85
2022/09/18 05:36:08;;;;;;;6.07;0.60;;;11.70;99.90;;;;;;5052595;28;20017;-84
2022/09/18 05:38:33;;;;;;;7.47;0.60;;;11.70;99.90;;;;;;5036256;28;20017;-84
2022/09/18 05:41:01;;;;;;;8.82;1.25;;;11.70;99.90;;;;;;5019784;28;20021;-87
2022/09/18 05:43:27;;;;;;;7.55;0.60;;;11.70;99.90;;;;;;5052549;28;20116;-84
2022/09/18 05:45:53;;;;;;;6.10;0.70;;;11.70;99.90;;;;;;5054066;28;20106;-87
2022/09/18 05:48:19;;;;;;;12.35;1.40;;;11.70;99.90;;;;;;5052961;28;20021;-86
2022/09/18 05:50:45;;;;;;;3.35;0.40;;;11.70;99.90;;;;;;5052555;28;20021;-84
2022/09/18 05:53:13;;;;;;;4.72;0.70;;;11.80;99.90;;;;;;5019398;28;20390;-84
2022/09/18 05:55:39;;;;;;;4.05;0.65;;;11.80;99.90;;;;;;5051897;28;20034;-83
2022/09/18 05:58:06;;;;;;;6.18;0.52;;;11.80;99.90;;;;;;5051873;28;20063;-84
2022/09/18 06:00:34;;;;;;;4.30;0.73;;;11.80;99.90;;;;;;5035611;28;20029;-83
2022/09/18 06:03:05;;;;;;;4.95;0.47;;;11.80;99.90;;;;;;5052482;28;20017;-84
2022/09/18 06:05:33;;;;;;;6.65;1.00;;;11.80;99.90;;;;;;5053099;28;20116;-84
2022/09/18 06:08:01;;;;;;;5.78;0.63;;;11.90;99.90;;;;;;5054056;28;20337;-82
2022/09/18 06:10:28;;;;;;;6.68;0.52;;;11.80;99.90;;;;;;5068721;28;20024;-82
2022/09/18 06:13:06;;;;;;;9.23;0.60;;;11.90;99.90;;;;;;5052081;28;20043;-85
2022/09/18 06:15:33;;;;;;;3.50;0.55;;;11.90;99.90;;;;;;5053413;28;20349;-85
2022/09/18 06:17:58;;;;;;;5.53;0.57;;;11.90;99.90;;;;;;5035671;28;20524;-85
2022/09/18 06:20:24;;;;;;;5.78;1.45;;;11.90;99.90;;;;;;5069149;28;20029;-83
2022/09/18 06:22:50;;;;;;;5.68;0.45;;;11.90;99.90;;;;;;5035256;28;20025;-84
2022/09/18 06:25:18;;;;;;;3.50;0.50;;;11.90;99.90;;;;;;5035274;28;20048;-82
2022/09/18 06:27:44;;;;;;;1.05;0.32;;;11.90;99.90;;;;;;5035279;28;20029;-86
2022/09/18 06:30:10;;;;;;;2.88;0.40;;;12.00;99.90;;;;;;5034604;28;20036;-82
2022/09/18 06:32:36;;;;;;;6.13;0.57;;;12.00;99.90;;;;;;5053060;28;20082;-84
2022/09/18 06:35:02;;;;;;;5.03;0.70;;;12.00;99.90;;;;;;5026326;28;20115;-83
2022/09/18 06:37:27;;;;;;;5.88;0.45;;;12.00;99.90;;;;;;5015415;28;20110;-84
2022/09/18 06:39:53;;;;;;;2.42;0.40;;;12.00;99.90;;;;;;5031803;28;20040;-83
2022/09/18 06:42:19;;;;;;;4.88;1.08;;;12.00;99.90;;;;;;5020223;28;20028;-83
2022/09/18 06:44:44;;;;;;;5.63;0.50;;;12.00;99.90;;;;;;5027201;28;20037;-83
2022/09/18 06:47:10;;;;;;;3.55;0.60;;;12.00;99.90;;;;;;5027742;28;20044;-83
2022/09/18 06:49:36;;;;;;;3.28;0.30;;;12.00;99.90;;;;;;5040296;28;20484;-83
2022/09/18 06:52:02;;;;;;;2.95;0.57;;;12.10;99.90;;;;;;5030342;28;20517;-83
2022/09/18 06:54:27;;;;;;;5.45;0.57;;;12.10;99.90;;;;;;5055370;28;20128;-83
2022/09/18 06:56:53;;;;;;;5.47;0.50;;;12.10;99.90;;;;;;5055134;28;20024;-83
2022/09/18 06:59:18;;;;;;;3.15;0.30;;;12.10;99.90;;;;;;5038052;28;20021;-82
2022/09/18 07:01:47;;;;;;;3.03;0.60;;;12.20;99.90;;;;;;5035148;28;20025;-83
2022/09/18 07:04:13;;;;;;;4.20;0.50;;;12.20;99.90;;;;;;5052856;28;20116;-82
2022/09/18 07:06:41;;;;;;;4.57;0.60;;;12.30;99.90;;;;;;5045586;28;20416;-82
2022/09/18 07:09:08;;;;;;;4.18;0.45;;;12.30;99.90;;;;;;5048548;28;20024;-82
2022/09/18 07:11:35;;;;;;;5.13;0.50;;;12.40;99.90;;;;;;5053978;28;20516;-82
2022/09/18 07:14:00;;;;;;;3.28;0.68;;;12.30;99.90;;;;;;5037757;28;20025;-83
2022/09/18 07:16:26;;;;;;;2.35;0.50;;;12.40;99.90;;;;;;5037523;28;20025;-83
2022/09/18 07:18:52;;;;;;;2.65;0.55;;;12.40;99.90;;;;;;5055771;28;20021;-83
2022/09/18 07:21:18;;;;;;;3.92;0.30;;;12.50;99.90;;;;;;5033898;28;20025;-82
2022/09/18 07:23:43;;;;;;;5.07;0.30;;;12.40;99.90;;;;;;5051480;28;20030;-82
2022/09/18 07:26:09;;;;;;;2.92;0.40;;;12.50;99.90;;;;;;5051191;28;20067;-81
2022/09/18 07:28:35;;;;;;;4.75;0.50;;;12.50;99.90;;;;;;5034631;28;20454;-82
2022/09/18 07:31:05;;;;;;;3.45;0.47;;;12.50;99.90;;;;;;5043944;28;20021;-81
2022/09/18 07:33:31;;;;;;;2.33;0.40;;;12.60;99.90;;;;;;5036322;28;20032;-82
2022/09/18 07:36:02;;;;;;;6.88;0.50;;;12.60;99.90;;;;;;5018199;28;20037;-82
2022/09/18 07:38:27;;;;;;;7.63;0.70;;;12.70;99.90;;;;;;5041796;28;20032;-82
2022/09/18 07:40:53;;;;;;;4.53;0.40;;;12.70;99.90;;;;;;5021382;28;20026;-82
2022/09/18 07:43:19;;;;;;;5.25;0.85;;;12.80;99.90;;;;;;5018193;28;20021;-82
2022/09/18 07:45:45;;;;;;;5.78;0.60;;;12.80;99.90;;;;;;5017938;28;20041;-83
2022/09/18 07:48:11;;;;;;;3.53;0.50;;;12.80;99.90;;;;;;5034407;28;20026;-84
2022/09/18 07:50:37;;;;;;;5.57;0.30;;;12.90;99.90;;;;;;5034315;28;20022;-84
2022/09/18 07:53:04;;;;;;;4.70;0.50;;;12.90;99.90;;;;;;5034271;28;20049;-84
2022/09/18 07:55:32;;;;;;;3.25;0.40;;;13.00;99.90;;;;;;5016957;28;20112;-82
2022/09/18 07:58:00;;;;;;;3.58;0.55;;;13.00;99.90;;;;;;5035023;28;20052;-83
2022/09/18 08:00:28;;;;;;;3.13;0.38;;;13.10;99.90;;;;;;5017808;28;20030;-83
2022/09/18 08:03:05;;;;;;;4.10;0.60;;;13.10;99.90;;;;;;5033517;28;20018;-83
2022/09/18 08:05:31;;;;;;;3.17;0.60;;;13.20;99.90;;;;;;5033853;28;20030;-83
2022/09/18 08:08:11;;;;;;;4.75;0.32;;;13.20;99.90;;;;;;5017580;28;20446;-85
2022/09/18 08:10:38;;;;;;;3.20;0.40;;;13.20;99.90;;;;;;5033752;28;20018;-85
2022/09/18 08:13:04;;;;;;;5.88;0.82;;;13.20;99.90;;;;;;5038844;28;20070;-84
2022/09/18 08:15:31;;;;;;;4.50;0.30;;;13.20;99.90;;;;;;5029525;28;20033;-84
2022/09/18 08:17:57;;;;;;;2.50;0.40;;;13.20;99.90;;;;;;5053628;28;20520;-84
2022/09/18 08:20:23;;;;;;;4.25;0.52;;;13.20;99.90;;;;;;5053631;28;20029;-84
2022/09/18 08:22:49;;;;;;;5.10;0.60;;;13.20;99.90;;;;;;5053589;28;20017;-85
2022/09/18 08:25:16;;;;;;;4.55;0.40;;;13.10;99.90;;;;;;5045181;28;20032;-84
2022/09/18 08:27:42;;;;;;;1.67;0.40;;;13.10;99.90;;;;;;5042835;28;20017;-84
2022/09/18 08:30:10;;;;;;;5.32;0.50;;;13.10;99.90;;;;;;5047374;28;20053;-83
2022/09/18 08:32:36;;;;;;;5.30;0.40;;;13.10;99.90;;;;;;5052294;28;20027;-84
2022/09/18 08:35:03;;;;;;;3.65;0.30;;;13.10;99.90;;;;;;5035569;28;20100;-86
2022/09/18 08:37:29;;;;;;;3.45;0.52;;;13.10;99.90;;;;;;5051316;28;20108;-85
2022/09/18 08:39:55;;;;;;;6.20;1.27;;;13.00;99.90;;;;;;5044148;28;20056;-86
2022/09/18 08:42:42;;;;;;;4.78;0.47;;;13.10;99.90;;;;;;5033363;28;20025;-84
2022/09/18 08:45:16;;;;;;;3.53;0.60;;;13.10;99.90;;;;;;5034763;28;20512;-85
2022/09/18 08:47:58;;;;;;;4.38;0.55;;;13.10;99.90;;;;;;5047606;28;20021;-84
2022/09/18 08:50:34;;;;;;;4.47;0.57;;;13.10;99.90;;;;;;5068501;28;20016;-84
2022/09/18 08:53:15;;;;;;;4.10;0.63;;;13.20;99.90;;;;;;5048785;28;20575;-84
2022/09/18 08:55:44;;;;;;;5.63;0.77;;;13.10;99.90;;;;;;5049680;28;20051;-81
2022/09/18 08:58:25;;;;;;;5.53;0.65;;;13.10;99.90;;;;;;5052638;28;20036;-83
2022/09/18 09:01:06;;;;;;;2.45;0.30;;;13.10;99.90;;;;;;5051384;28;20100;-85
2022/09/18 09:04:03;;;;;;;2.17;0.57;;;13.20;99.90;;;;;;5049961;28;20032;-84
2022/09/18 09:06:49;;;;;;;4.35;0.57;;;13.20;99.90;;;;;;5048496;28;20074;-84
2022/09/18 09:10:03;;;;;;;4.43;0.40;;;13.20;99.90;;;;;;5067698;28;20021;-85
2022/09/18 09:12:45;;;;;;;4.60;0.50;;;13.30;99.90;;;;;;5036690;28;20032;-84
2022/09/18 09:15:14;;;;;;;5.43;0.50;;;13.30;99.90;;;;;;5049352;28;20026;-86
2022/09/18 09:18:05;;;;;;;6.15;0.85;;;13.40;99.90;;;;;;5034140;28;20512;-84
2022/09/18 09:20:37;;;;;;;3.22;0.50;;;13.40;99.90;;;;;;5037572;28;20026;-84
2022/09/18 09:23:13;;;;;;;3.97;0.85;;;13.60;99.90;;;;;;5064677;28;20057;-85
2022/09/18 09:25:52;;;;;;;4.82;0.63;;;13.60;99.90;;;;;;5035288;28;20037;-84
2022/09/18 09:28:23;;;;;;;2.17;0.30;;;13.70;99.90;;;;;;5031858;28;20021;-84
2022/09/18 09:30:55;;;;;;;2.95;0.50;;;13.80;99.90;;;;;;5045722;28;20028;-84
2022/09/18 09:33:32;;;;;;;4.78;0.60;;;13.90;99.90;;;;;;5053588;28;20025;-84
2022/09/18 09:36:04;;;;;;;4.97;0.50;;;13.90;99.90;;;;;;5051949;28;20027;-84
2022/09/18 09:39:03;;;;;;;7.13;0.40;;;14.00;99.90;;;;;;5052497;28;20054;-84
2022/09/18 09:41:45;;;;;;;2.85;0.38;;;14.00;99.90;;;;;;5052484;28;20086;-83
2022/09/18 09:44:19;;;;;;;5.93;0.73;;;13.90;99.90;;;;;;5053240;28;20021;-84
2022/09/18 09:47:06;;;;;;;4.03;0.40;;;13.90;99.90;;;;;;5052332;28;20025;-84
2022/09/18 09:49:38;;;;;;;3.00;0.47;;;13.90;99.90;;;;;;5051591;28;20021;-84
2022/09/18 09:52:20;;;;;;;3.22;0.50;;;13.90;99.90;;;;;;5043844;28;20045;-83
2022/09/18 09:54:53;;;;;;;6.30;0.82;;;13.90;99.90;;;;;;5042854;28;20049;-83
2022/09/18 09:57:33;;;;;;;2.58;0.63;;;13.90;99.90;;;;;;5040461;28;20029;-83
2022/09/18 10:00:10;;;;;;;3.88;0.40;;;13.80;99.90;;;;;;5042287;28;20021;-83
2022/09/18 10:02:53;;;;;;;6.25;0.40;;;13.90;99.90;;;;;;5053691;28;20460;-84
2022/09/18 10:05:39;;;;;;;6.97;1.02;;;13.90;99.90;;;;;;5050940;28;20530;-83
2022/09/18 10:08:25;;;;;;;4.50;0.60;;;14.10;99.90;;;;;;5043430;28;20025;-84
2022/09/18 10:10:56;;;;;;;4.38;0.40;;;14.10;99.90;;;;;;5046371;28;20361;-86
2022/09/18 10:13:28;;;;;;;3.20;0.32;;;14.30;99.90;;;;;;5042074;28;20024;-84
2022/09/18 10:16:00;;;;;;;5.22;0.30;;;14.40;99.90;;;;;;5039603;28;20063;-86
2022/09/18 10:18:34;;;;;;;2.85;0.40;;;14.40;99.90;;;;;;5031549;28;20029;-84
2022/09/18 10:21:11;;;;;;;2.58;0.30;;;14.40;99.90;;;;;;5032084;28;20017;-85
2022/09/18 10:23:42;;;;;;;3.20;0.40;;;14.50;99.90;;;;;;5031931;28;20021;-86
2022/09/18 10:26:20;;;;;;;3.28;0.57;;;14.50;99.90;;;;;;5032160;28;20080;-84
2022/09/18 10:28:46;;;;;;;3.10;0.47;;;14.50;99.90;;;;;;5031720;28;20025;-85
2022/09/18 10:31:13;;;;;;;4.20;0.60;;;14.50;99.90;;;;;;5015504;28;20071;-85
2022/09/18 10:33:44;;;;;;;3.40;0.30;;;14.50;99.90;;;;;;5015408;28;20029;-84
2022/09/18 10:36:37;;;;;;;2.70;0.68;;;14.50;99.90;;;;;;5032942;28;20025;-84
2022/09/18 10:39:31;;;;;;;4.35;0.60;;;14.60;99.90;;;;;;5031929;28;20024;-84
2022/09/18 10:42:01;;;;;;;4.85;0.60;;;14.60;99.90;;;;;;5033068;28;20454;-84
2022/09/18 10:44:32;;;;;;;5.88;0.60;;;14.60;99.60;;;;;;5031851;28;20065;-85
2022/09/18 10:47:32;;;;;;;2.58;0.35;;;14.60;99.60;;;;;;5032057;28;20022;-85
2022/09/18 10:50:10;;;;;;;4.35;0.50;;;14.60;99.10;;;;;;5010386;28;20079;-87
2022/09/18 10:52:38;;;;;;;3.08;0.60;;;14.60;99.00;;;;;;5039914;28;20026;-86
2022/09/18 10:55:08;;;;;;;7.85;0.50;;;14.50;99.10;;;;;;5040720;28;20017;-85
2022/09/18 10:57:36;;;;;;;2.58;0.40;;;14.60;99.20;;;;;;5036117;28;20084;-85
2022/09/18 11:00:19;;;;;;;6.63;0.57;;;14.50;99.10;;;;;;5032712;28;20060;-85
2022/09/18 11:02:52;;;;;;;8.00;0.50;;;14.50;99.30;;;;;;5033067;28;20017;-86
2022/09/18 11:05:25;;;;;;;5.07;0.75;;;14.60;99.20;;;;;;5032812;28;20030;-84
2022/09/18 11:07:53;;;;;;;6.22;0.70;;;14.60;99.00;;;;;;5031847;28;20053;-85
2022/09/18 11:10:22;;;;;;;5.38;0.52;;;14.60;99.00;;;;;;5033354;28;20072;-89
2022/09/18 11:12:50;;;;;;;4.45;0.40;;;14.60;98.50;;;;;;5033234;28;20485;-87
2022/09/18 11:15:19;;;;;;;4.47;0.50;;;14.60;97.60;;;;;;5032063;28;20466;-85
2022/09/18 11:17:51;;;;;;;5.28;0.68;;;14.50;97.20;;;;;;5030548;28;20025;-87
2022/09/18 11:20:25;;;;;;;4.55;0.40;;;14.50;97.50;;;;;;5046893;28;20021;-89
2022/09/18 11:22:52;;;;;;;;;;;14.50;97.70;;;;;;5034263;28;20022;-86
2022/09/18 11:25:20;;;;;;;5.15;0.55;;;14.50;97.70;;;;;;5032884;28;19913;-87
2022/09/18 11:27:54;;;;;;;4.35;0.82;;;14.50;97.80;;;;;;5032422;28;20056;-87
2022/09/18 11:30:28;;;;;;;;;;;14.50;97.90;;;;;;5033107;28;20073;-87
2022/09/18 11:33:01;;;;;;;3.47;0.50;;;14.50;98.00;;;;;;5035079;28;19901;-88
2022/09/18 11:35:29;;;;;;;2.78;0.70;;;14.40;97.90;;;;;;5041869;28;20101;-88
2022/09/18 11:37:59;;;;;;;3.60;0.45;;;14.40;98.00;;;;;;5052662;28;20427;-89
2022/09/18 11:40:31;;;;;;;2.70;0.30;;;14.40;98.10;;;;;;5057261;28;20036;-89
2022/09/18 11:42:58;;;;;;;3.88;0.40;;;14.40;97.90;;;;;;5057157;28;20044;-89
2022/09/18 11:45:51;;;;;;;6.70;0.50;;;14.30;97.90;;;;;;5038864;28;20037;-89
2022/09/18 11:48:34;;;;;;;4.70;0.40;;;14.30;97.90;;;;;;5055910;28;20049;-89
2022/09/18 11:51:03;;;;;;;3.15;0.40;;;14.30;98.00;;;;;;5055922;28;20017;-90
2022/09/18 11:53:37;;;;;;;3.58;0.50;;;14.30;97.80;;;;;;5056421;28;20056;-88
2022/09/18 11:56:26;;;;;;;2.13;0.30;;;14.20;97.80;;;;;;5055720;28;20044;-88
2022/09/18 11:59:08;;;;;;;1.70;0.30;;;14.20;97.80;;;;;;5056684;28;20154;-88
2022/09/18 12:01:40;;;;;;;4.53;0.50;;;14.10;98.00;;;;;;5042681;28;20021;-88
2022/09/18 12:04:34;;;;;;;2.80;0.40;;;14.10;98.10;;;;;;5055047;28;20350;-89
2022/09/18 12:07:34;;;;;;;4.65;0.47;;;14.10;98.30;;;;;;5054831;28;20035;-88
2022/09/18 12:10:13;;;;;;;3.47;0.50;;;14.10;98.30;;;;;;5054887;28;20028;-88
2022/09/18 12:12:51;;;;;;;1.83;0.30;;;14.20;98.40;;;;;;5071365;28;20017;-88
2022/09/18 12:15:26;;;;;;;2.95;0.40;;;14.10;98.50;;;;;;5055642;28;20056;-87
2022/09/18 12:17:52;;;;;;;4.38;0.55;;;14.20;98.60;;;;;;5056219;28;20029;-87
2022/09/18 12:20:34;;;;;;;5.93;0.50;;;14.30;98.70;;;;;;5062893;28;20024;-87
2022/09/18 12:23:01;;;;;;;3.17;0.60;;;14.20;98.70;;;;;;5048252;28;20107;-86
2022/09/18 12:25:42;;;;;;;3.50;0.50;;;14.20;98.70;;;;;;5036300;28;20033;-86
2022/09/18 12:28:28;;;;;;;5.10;0.70;;;14.20;98.70;;;;;;5052301;28;20028;-86
2022/09/18 12:31:33;;;;;;;4.70;0.50;;;14.20;98.80;;;;;;5053798;28;20019;-86
2022/09/18 12:34:19;;;;;;;2.92;0.60;;;14.20;98.80;;;;;;5032198;28;20033;-86
2022/09/18 12:36:58;;;;;;;8.32;0.80;;;14.20;98.70;;;;;;5054478;28;20017;-85
2022/09/18 12:39:48;;;;;;;7.72;1.85;;;14.20;98.70;;;;;;5055566;28;20024;-86
2022/09/18 12:42:46;;;;;;;5.03;1.40;;;14.20;98.50;;;;;;5053800;28;20449;-87
2022/09/18 12:45:24;;;;;;;3.97;0.68;;;14.20;98.20;;;;;;5028587;28;20044;-85
2022/09/18 12:48:23;;;;;;;3.72;0.50;;;14.10;98.20;;;;;;5053661;28;20457;-85
2022/09/18 12:51:28;;;;;;;3.97;0.50;;;14.10;98.30;;;;;;5053796;28;20013;-85
2022/09/18 12:54:18;;;;;;;4.43;0.73;;;14.10;98.50;;;;;;5055028;28;20135;-86
2022/09/18 12:56:53;;;;;;;4.85;0.60;;;14.10;98.50;;;;;;5053706;28;20031;-87
2022/09/18 12:59:38;;;;;;;;;;;14.10;98.60;;;;;;5053889;28;20492;-86
2022/09/18 13:02:22;;;;;;;2.60;0.52;;;14.10;98.90;;;;;;5053580;28;20034;-86
2022/09/18 13:05:13;;;;;;;3.20;0.50;;;14.10;98.60;;;;;;5053614;28;20037;-86
2022/09/18 13:08:19;;;;;;;4.45;0.43;;;14.10;98.70;;;;;;5047599;28;20025;-86
2022/09/18 13:10:46;;;;;;;1.88;0.35;;;14.00;98.70;;;;;;5049238;28;20022;-87
2022/09/18 13:13:38;;;;;;;5.28;0.50;;;14.00;98.70;;;;;;5033823;28;20454;-86